Lučenec, Slovensko

12:44 AM CET dna 29 Marec, 2015 (GMT +0100)
Lucenec Rubanisko II | | Change Station
CLOSE
Current Station
Personal Weather Stations
Location: Lucenec, Slovakia
Nad. výška:: 699 ft
Najbližšie meteo stanice

Elev 699 ft 48.34 °N, 19.65 °E | Updated 14 minutes ago

Partly Cloudy
Čiastočne zamračené
44.6 °F
Feels Like 45 °F
N
1.0
Vietor meniaci sa Vietor from SZ
Gusts 4.0 mph

Dnes
High -- | Low -- °F
--% Chance of Precip.
Yesterday
High -- | Low -- °F
Precip. -- in
6:26 AM 7:06 PM
Pribúdajúci mesiac, 2. fáza, 66% visible
Tlak 29.89 in
Viditeľnosť 6.2 mile
Oblačnost Few 3600 ft
Pocitová teplota 45 °F
Rosný bod 34 °F
Vlhkosť 67%
Rainfall 0.00 in
Výška snehu Not available.
UV 0 out of 12
Pollen Not available.
Air Quality Not available.
Flu Activity Not available.
METAR LZTT 282330Z VRB01KT 9999 FEW036 M01/M03 Q1012

More Conditions Fewer Conditions

Tlak 29.89 in
Viditeľnosť 6.2 mile
Oblačnost Few 3600 ft
Pocitová teplota 45 °F
Rosný bod 34 °F
Vlhkosť 67%
Rainfall 0.00 in
Výška snehu Not available.
UV 0 out of 12
Pollen Not available.
Air Quality Not available.
Flu Activity Not available.
METAR LZTT 282330Z VRB01KT 9999 FEW036 M01/M03 Q1012

More Conditions Fewer Conditions

10-Day Weather Forecast

Almanac

Astronómia

Mar. 29, 2015 Východ Západ
Aktuálny čas
Civil Twilight
Nautical Twilight
Astronomical Twilight
Mesiac
Length Of Visible Light
Dĺžka dňa
Tomorrow will be .
, % of the Moon is Illuminated

Today's Extremes

Country Highs Country Lows

Community

WunderPhotos

Upload Photos

1,809,128 photos uploaded!

WunderBlogs® & News

Nearby

Air Quality

  Air Quality AQ Index Pollutant
Not available.

Výska snehu

Station Depth Nad. výška:

Aktivita zemetrasenia

Mesto Distance Mag. Time & Date
Minimum magnitude displayed is 2.5.

Coastal Water Temperatures

Miesto Teplota

Stations

Najbližšie meteo stanice

Station Location Temp Pocitová teplota Rosný bod Vlhkosť Vietor Precip. Elev Cas aktualizacie Type